createdAt,value
2022-08-25T00:00:13.995Z,100629.38
2022-08-25T00:02:41.485Z,100631.25
2022-08-25T00:05:21.931Z,100635.09
2022-08-25T00:07:48.941Z,100627.97
2022-08-25T00:10:15.548Z,100633.09
2022-08-25T00:12:42.183Z,100640.47
2022-08-25T00:15:09.805Z,100640.13
2022-08-25T00:17:36.488Z,100634.50
2022-08-25T00:20:05.230Z,100629.84
2022-08-25T00:22:31.897Z,100638.00
2022-08-25T00:24:58.522Z,100627.97
2022-08-25T00:27:25.967Z,100627.66
2022-08-25T00:29:52.586Z,100635.28
2022-08-25T00:32:19.311Z,100636.28
2022-08-25T00:34:46.332Z,100641.72
2022-08-25T00:37:13.306Z,100640.63
2022-08-25T00:39:40.201Z,100641.19
2022-08-25T00:42:16.128Z,100646.91
2022-08-25T00:44:43.924Z,100642.53
2022-08-25T00:47:10.932Z,100645.53
2022-08-25T00:49:45.240Z,100643.88
2022-08-25T00:52:27.441Z,100647.69
2022-08-25T00:55:07.774Z,100639.81
2022-08-25T00:57:39.476Z,100641.13
2022-08-25T01:00:12.415Z,100640.06
2022-08-25T01:02:39.635Z,100640.31
2022-08-25T01:05:06.722Z,100627.56
2022-08-25T01:07:33.564Z,100644.88
2022-08-25T01:10:01.005Z,100636.75
2022-08-25T01:12:27.731Z,100642.38
2022-08-25T01:14:55.305Z,100644.56
2022-08-25T01:17:22.046Z,100641.25
2022-08-25T01:19:48.630Z,100639.06
2022-08-25T01:22:15.692Z,100642.59
2022-08-25T01:25:03.961Z,100645.09
2022-08-25T01:27:30.650Z,100631.94
2022-08-25T01:29:58.019Z,100641.06
2022-08-25T01:32:25.082Z,100638.78
2022-08-25T01:34:51.983Z,100643.97
2022-08-25T01:37:19.310Z,100643.06
2022-08-25T01:39:46.588Z,100643.19
2022-08-25T01:42:19.364Z,100642.91
2022-08-25T01:44:47.655Z,100641.41
2022-08-25T01:47:15.211Z,100644.06
2022-08-25T01:49:42.093Z,100642.31
2022-08-25T01:52:25.090Z,100640.75
2022-08-25T01:54:51.847Z,100640.91
2022-08-25T01:57:18.520Z,100638.91
2022-08-25T01:59:45.527Z,100635.22
2022-08-25T02:02:12.269Z,100633.19
2022-08-25T02:04:39.525Z,100639.22
2022-08-25T02:07:08.732Z,100634.81
2022-08-25T02:09:36.825Z,100643.53
2022-08-25T02:12:03.821Z,100644.31
2022-08-25T02:14:30.456Z,100649.78
2022-08-25T02:16:57.300Z,100640.69
2022-08-25T02:19:25.841Z,100644.31
2022-08-25T02:21:52.670Z,100655.50
2022-08-25T02:24:19.323Z,100658.31
2022-08-25T02:26:46.044Z,100658.13
2022-08-25T02:29:12.748Z,100651.41
2022-08-25T02:31:39.728Z,100649.97
2022-08-25T02:34:07.938Z,100656.00
2022-08-25T02:36:34.867Z,100656.06
2022-08-25T02:39:02.167Z,100654.59
2022-08-25T02:41:31.809Z,100652.69
2022-08-25T02:43:59.895Z,100658.13
2022-08-25T02:46:29.196Z,100649.63
2022-08-25T02:48:55.886Z,100655.06
2022-08-25T02:51:24.310Z,100651.69
2022-08-25T02:53:51.362Z,100650.53
2022-08-25T02:56:18.951Z,100648.78
2022-08-25T02:58:46.784Z,100642.66
2022-08-25T03:01:14.531Z,100647.06
2022-08-25T03:03:43.636Z,100651.41
2022-08-25T03:06:12.815Z,100652.75
2022-08-25T03:08:40.126Z,100653.63
2022-08-25T03:11:07.077Z,100650.03
2022-08-25T03:13:33.834Z,100643.06
2022-08-25T03:16:01.674Z,100647.50
2022-08-25T03:18:30.193Z,100650.75
2022-08-25T03:20:58.088Z,100646.19
2022-08-25T03:23:25.122Z,100650.66
2022-08-25T03:26:13.342Z,100649.50
2022-08-25T03:28:41.680Z,100640.56
2022-08-25T03:31:09.542Z,100647.22
2022-08-25T03:33:36.473Z,100646.19
2022-08-25T03:36:03.469Z,100652.97
2022-08-25T03:38:30.118Z,100658.75
2022-08-25T03:40:56.783Z,100653.81
2022-08-25T03:43:23.655Z,100656.50
2022-08-25T03:45:50.383Z,100658.94
2022-08-25T03:48:17.678Z,100653.94
2022-08-25T03:50:50.463Z,100660.59
2022-08-25T03:53:19.923Z,100654.13
2022-08-25T03:55:46.832Z,100646.34
2022-08-25T03:58:16.637Z,100649.19
2022-08-25T04:00:43.309Z,100648.72
2022-08-25T04:03:10.015Z,100638.94
2022-08-25T04:05:36.709Z,100641.38
2022-08-25T04:08:03.793Z,100646.59
2022-08-25T04:10:31.194Z,100646.25
2022-08-25T04:12:58.238Z,100635.91
2022-08-25T04:15:28.568Z,100637.66
2022-08-25T04:17:59.007Z,100635.34
2022-08-25T04:20:26.325Z,100636.84
2022-08-25T04:22:53.105Z,100626.72
2022-08-25T04:25:19.913Z,100626.63
2022-08-25T04:27:46.574Z,100618.16
2022-08-25T04:30:13.752Z,100624.75
2022-08-25T04:32:40.377Z,100620.41
2022-08-25T04:35:07.575Z,100625.81
2022-08-25T04:37:34.477Z,100627.72
2022-08-25T04:40:02.147Z,100631.09
2022-08-25T04:42:28.904Z,100624.78
2022-08-25T04:44:55.872Z,100624.53
2022-08-25T04:47:22.663Z,100614.97
2022-08-25T04:49:49.340Z,100620.72
2022-08-25T04:52:16.110Z,100617.22
2022-08-25T04:54:43.738Z,100623.28
2022-08-25T04:57:10.442Z,100624.09
2022-08-25T04:59:37.080Z,100616.50
2022-08-25T05:02:05.227Z,100619.03
2022-08-25T05:04:33.795Z,100614.47
2022-08-25T05:07:00.970Z,100610.94
2022-08-25T05:09:27.998Z,100615.88
2022-08-25T05:11:54.982Z,100603.75
2022-08-25T05:14:25.654Z,100605.31
2022-08-25T05:16:54.914Z,100598.06
2022-08-25T05:19:22.255Z,100600.56
2022-08-25T05:21:48.991Z,100595.78
2022-08-25T05:24:15.749Z,100589.97
2022-08-25T05:26:44.005Z,100580.50
2022-08-25T05:29:11.710Z,100585.69
2022-08-25T05:31:42.337Z,100592.81
2022-08-25T05:34:12.072Z,100591.44
2022-08-25T05:36:43.110Z,100596.91
2022-08-25T05:39:10.522Z,100591.94
2022-08-25T05:41:37.241Z,100591.38
2022-08-25T05:44:04.151Z,100592.81
2022-08-25T05:46:31.641Z,100583.78
2022-08-25T05:48:59.056Z,100578.31
2022-08-25T05:51:26.327Z,100580.44
2022-08-25T05:53:53.087Z,100581.38
2022-08-25T05:56:19.990Z,100573.47
2022-08-25T05:58:47.029Z,100579.44
2022-08-25T06:01:45.574Z,100574.66
2022-08-25T06:04:16.171Z,100574.81
2022-08-25T06:06:42.869Z,100582.56
2022-08-25T06:09:11.968Z,100582.63
2022-08-25T06:11:39.966Z,100577.88
2022-08-25T06:14:07.662Z,100576.97
2022-08-25T06:16:34.450Z,100578.97
2022-08-25T06:19:03.463Z,100585.28
2022-08-25T06:21:30.581Z,100574.06
2022-08-25T06:23:57.264Z,100571.44
2022-08-25T06:26:24.597Z,100573.34
2022-08-25T06:28:51.750Z,100571.06
2022-08-25T06:31:22.225Z,100567.28
2022-08-25T06:33:49.563Z,100566.88
2022-08-25T06:36:16.471Z,100565.56
2022-08-25T06:38:43.453Z,100567.59
2022-08-25T06:41:13.000Z,100565.16
2022-08-25T06:43:47.304Z,100555.44
2022-08-25T06:46:36.348Z,100563.06
2022-08-25T06:49:08.158Z,100568.44
2022-08-25T06:51:38.278Z,100561.81
2022-08-25T06:54:06.639Z,100561.50
2022-08-25T06:56:38.987Z,100557.34
2022-08-25T06:59:06.681Z,100561.91
2022-08-25T07:01:34.156Z,100560.47
2022-08-25T07:04:02.760Z,100558.81
2022-08-25T07:06:32.164Z,100562.00
2022-08-25T07:09:00.321Z,100558.31
2022-08-25T07:11:27.781Z,100561.47
2022-08-25T07:13:54.552Z,100564.41
2022-08-25T07:16:21.819Z,100557.59
2022-08-25T07:18:49.277Z,100560.25
2022-08-25T07:21:16.206Z,100565.50
2022-08-25T07:23:42.843Z,100569.59
2022-08-25T07:26:33.648Z,100562.06
2022-08-25T07:28:59.719Z,100563.97
2022-08-25T07:31:29.453Z,100566.50
2022-08-25T07:34:16.340Z,100568.94
2022-08-25T07:36:43.729Z,100565.63
2022-08-25T07:39:10.952Z,100565.97
2022-08-25T07:41:41.131Z,100572.78
2022-08-25T07:44:11.340Z,100575.44
2022-08-25T07:46:38.923Z,100566.34
2022-08-25T07:49:16.375Z,100564.03
2022-08-25T07:52:05.259Z,100564.59
2022-08-25T07:54:33.908Z,100560.13
2022-08-25T07:57:01.034Z,100565.72
2022-08-25T07:59:30.047Z,100573.56
2022-08-25T08:01:57.402Z,100572.16
2022-08-25T08:04:24.270Z,100570.94
2022-08-25T08:06:50.877Z,100571.31
2022-08-25T08:09:17.548Z,100571.38
2022-08-25T08:11:53.833Z,100570.13
2022-08-25T08:14:21.472Z,100569.81
2022-08-25T08:16:48.156Z,100571.91
2022-08-25T08:19:15.841Z,100570.56
2022-08-25T08:21:46.708Z,100562.88
2022-08-25T08:24:31.227Z,100562.97
2022-08-25T08:27:00.905Z,100564.50
2022-08-25T08:29:27.876Z,100563.69
2022-08-25T08:31:54.522Z,100553.16
2022-08-25T08:34:24.898Z,100551.31
2022-08-25T08:36:52.991Z,100552.66
2022-08-25T08:39:19.811Z,100557.00
2022-08-25T08:42:27.439Z,100549.59
2022-08-25T08:45:17.242Z,100553.94
2022-08-25T08:48:00.852Z,100547.84
2022-08-25T08:50:40.337Z,100548.47
2022-08-25T08:53:22.377Z,100549.28
2022-08-25T08:55:53.053Z,100552.75
2022-08-25T08:58:26.428Z,100540.50
2022-08-25T09:00:58.310Z,100543.38
2022-08-25T09:03:37.158Z,100536.97
2022-08-25T09:06:18.972Z,100530.44
2022-08-25T09:08:46.051Z,100534.91
2022-08-25T09:11:18.941Z,100530.94
2022-08-25T09:14:23.106Z,100530.53
2022-08-25T09:17:26.587Z,100533.41
2022-08-25T09:19:53.805Z,100523.44
2022-08-25T09:22:33.853Z,100521.44
2022-08-25T09:25:53.082Z,100521.88
2022-08-25T09:28:32.800Z,100513.50
2022-08-25T09:31:05.017Z,100514.81
2022-08-25T09:33:35.525Z,100513.41
2022-08-25T09:36:06.437Z,100520.38
2022-08-25T09:38:35.811Z,100509.41
2022-08-25T09:41:03.182Z,100516.63
2022-08-25T09:43:33.336Z,100509.69
2022-08-25T09:46:16.144Z,100499.69
2022-08-25T09:48:55.965Z,100487.69
2022-08-25T09:51:42.206Z,100490.44
2022-08-25T09:54:17.854Z,100481.25
2022-08-25T09:56:53.686Z,100465.72
2022-08-25T09:59:30.828Z,100465.22
2022-08-25T10:02:21.139Z,100467.31
2022-08-25T10:04:52.311Z,100463.06
2022-08-25T10:07:32.318Z,100453.34
2022-08-25T10:10:04.397Z,100455.63
2022-08-25T10:12:42.738Z,100445.22
2022-08-25T10:15:15.981Z,100441.31
2022-08-25T10:17:56.590Z,100444.41
2022-08-25T10:20:28.675Z,100432.84
2022-08-25T10:23:20.231Z,100436.53
2022-08-25T10:26:00.372Z,100420.78
2022-08-25T10:28:34.400Z,100417.97
2022-08-25T10:31:10.288Z,100418.50
2022-08-25T10:33:46.216Z,100423.13
2022-08-25T10:36:21.646Z,100411.25
2022-08-25T10:39:01.612Z,100406.47
2022-08-25T10:41:37.729Z,100404.19
2022-08-25T10:44:31.113Z,100389.94
2022-08-25T10:47:05.915Z,100393.13
2022-08-25T10:49:45.205Z,100376.81
2022-08-25T10:52:21.491Z,100380.09
2022-08-25T10:55:14.457Z,100373.72
2022-08-25T10:58:03.040Z,100370.81
2022-08-25T11:00:37.457Z,100354.31
2022-08-25T11:03:35.323Z,100361.44
2022-08-25T11:06:15.317Z,100371.00
2022-08-25T11:08:52.038Z,100361.94
2022-08-25T11:11:33.054Z,100360.31
2022-08-25T11:14:11.390Z,100356.63
2022-08-25T11:16:58.527Z,100356.63
2022-08-25T11:19:31.231Z,100353.22
2022-08-25T11:22:21.765Z,100346.09
2022-08-25T11:25:01.080Z,100353.84
2022-08-25T11:27:51.485Z,100342.00
2022-08-25T11:30:19.227Z,100348.81
2022-08-25T11:32:48.909Z,100338.94
2022-08-25T11:35:18.830Z,100335.19
2022-08-25T11:38:00.719Z,100329.84
2022-08-25T11:40:55.695Z,100329.06
2022-08-25T11:43:25.171Z,100330.81
2022-08-25T11:46:01.249Z,100323.19
2022-08-25T11:48:51.623Z,100325.78
2022-08-25T11:51:33.943Z,100328.38
2022-08-25T11:54:36.931Z,100327.56
2022-08-25T11:57:07.181Z,100330.16
2022-08-25T11:59:52.383Z,100324.63
2022-08-25T12:02:30.974Z,100328.72
2022-08-25T12:04:57.988Z,100319.59
2022-08-25T12:07:28.062Z,100318.78
2022-08-25T12:09:54.931Z,100318.47
2022-08-25T12:12:29.518Z,100309.09
2022-08-25T12:15:23.918Z,100319.47
2022-08-25T12:18:12.861Z,100310.34
2022-08-25T12:20:56.239Z,100305.56
2022-08-25T12:23:30.383Z,100303.50
2022-08-25T12:26:01.456Z,100304.91
2022-08-25T12:28:36.168Z,100302.50
2022-08-25T12:31:16.021Z,100303.78
2022-08-25T12:34:02.756Z,100300.25
2022-08-25T12:36:33.278Z,100301.50
2022-08-25T12:39:18.705Z,100302.41
2022-08-25T12:41:56.006Z,100305.06
2022-08-25T12:44:36.685Z,100305.31
2022-08-25T12:47:24.707Z,100304.25
2022-08-25T12:49:51.598Z,100306.59
2022-08-25T12:52:21.269Z,100305.03
2022-08-25T12:54:59.716Z,100298.38
2022-08-25T12:57:42.998Z,100299.38
2022-08-25T13:00:16.482Z,100295.63
2022-08-25T13:02:52.675Z,100299.63
2022-08-25T13:05:25.421Z,100294.44
2022-08-25T13:08:33.527Z,100293.75
2022-08-25T13:11:17.562Z,100286.22
2022-08-25T13:13:57.650Z,100281.19
2022-08-25T13:16:29.998Z,100283.63
2022-08-25T13:19:01.771Z,100276.75
2022-08-25T13:21:33.735Z,100270.63
2022-08-25T13:24:05.776Z,100272.28
2022-08-25T13:26:37.724Z,100272.66
2022-08-25T13:29:19.900Z,100268.94
2022-08-25T13:31:58.479Z,100258.38
2022-08-25T13:34:34.856Z,100253.41
2022-08-25T13:37:29.588Z,100247.22
2022-08-25T13:40:10.242Z,100250.66
2022-08-25T13:42:42.481Z,100242.22
2022-08-25T13:45:16.819Z,100247.34
2022-08-25T13:47:45.799Z,100246.47
2022-08-25T13:50:17.649Z,100243.16
2022-08-25T13:52:53.968Z,100232.97
2022-08-25T13:55:27.611Z,100238.09
2022-08-25T13:57:54.974Z,100225.91
2022-08-25T14:00:43.254Z,100230.59
2022-08-25T14:03:30.141Z,100218.97
2022-08-25T14:06:16.533Z,100213.84
2022-08-25T14:08:48.660Z,100217.34
2022-08-25T14:11:34.375Z,100214.38
2022-08-25T14:14:09.488Z,100212.31
2022-08-25T14:16:43.454Z,100216.28
2022-08-25T14:19:19.814Z,100211.28
2022-08-25T14:21:47.396Z,100207.66
2022-08-25T14:24:22.582Z,100197.56
2022-08-25T14:26:54.500Z,100206.50
2022-08-25T14:29:22.142Z,100198.16
2022-08-25T14:31:49.434Z,100197.47
2022-08-25T14:34:18.053Z,100195.00
2022-08-25T14:36:48.364Z,100195.88
2022-08-25T14:39:15.331Z,100195.94
2022-08-25T14:41:45.342Z,100190.81
2022-08-25T14:44:20.414Z,100190.75
2022-08-25T14:46:55.174Z,100191.47
2022-08-25T14:49:26.949Z,100177.63
2022-08-25T14:51:53.814Z,100185.53
2022-08-25T14:54:25.950Z,100166.47
2022-08-25T14:56:53.786Z,100167.31
2022-08-25T14:59:20.652Z,100157.41
2022-08-25T15:01:50.087Z,100163.16
2022-08-25T15:04:27.428Z,100165.91
2022-08-25T15:07:00.085Z,100168.25
2022-08-25T15:09:33.390Z,100167.88
2022-08-25T15:12:00.630Z,100169.22
2022-08-25T15:14:29.143Z,100161.47
2022-08-25T15:17:01.017Z,100167.19
2022-08-25T15:19:28.773Z,100163.38
2022-08-25T15:21:57.951Z,100156.50
2022-08-25T15:24:26.689Z,100158.38
2022-08-25T15:26:56.055Z,100154.19
2022-08-25T15:29:26.264Z,100159.44
2022-08-25T15:31:53.343Z,100157.72
2022-08-25T15:34:20.070Z,100152.72
2022-08-25T15:36:46.793Z,100152.44
2022-08-25T15:39:14.163Z,100144.91
2022-08-25T15:41:42.598Z,100136.22
2022-08-25T15:44:11.341Z,100138.38
2022-08-25T15:46:41.578Z,100132.25
2022-08-25T15:49:08.292Z,100118.97
2022-08-25T15:51:35.083Z,100127.69
2022-08-25T15:54:04.604Z,100115.88
2022-08-25T15:56:31.302Z,100118.06
2022-08-25T15:58:57.923Z,100113.59
2022-08-25T16:01:27.308Z,100120.94
2022-08-25T16:03:57.582Z,100120.66
2022-08-25T16:06:26.347Z,100127.69
2022-08-25T16:08:52.971Z,100123.66
2022-08-25T16:11:24.459Z,100120.50
2022-08-25T16:13:52.244Z,100118.81
2022-08-25T16:16:20.695Z,100123.19
2022-08-25T16:18:47.701Z,100119.66
2022-08-25T16:21:17.659Z,100124.44
2022-08-25T16:23:45.158Z,100126.56
2022-08-25T16:26:13.805Z,100129.09
2022-08-25T16:28:43.829Z,100121.84
2022-08-25T16:31:13.052Z,100120.88
2022-08-25T16:36:15.219Z,100110.41
2022-08-25T16:38:42.629Z,100114.56
2022-08-25T16:41:22.283Z,100111.78
2022-08-25T16:43:49.285Z,100110.16
2022-08-25T16:46:19.240Z,100111.94
2022-08-25T16:48:46.578Z,100107.94
2022-08-25T16:51:16.283Z,100111.97
2022-08-25T16:54:08.128Z,100103.88
2022-08-25T16:56:36.036Z,100108.72
2022-08-25T16:59:04.952Z,100109.19
2022-08-25T17:01:35.341Z,100101.53
2022-08-25T17:04:04.133Z,100106.13
2022-08-25T17:06:35.288Z,100100.84
2022-08-25T17:09:02.362Z,100107.16
2022-08-25T17:11:35.039Z,100102.31
2022-08-25T17:14:04.498Z,100111.69
2022-08-25T17:16:37.894Z,100111.47
2022-08-25T17:19:11.852Z,100105.38
2022-08-25T17:21:41.141Z,100106.53
2022-08-25T17:24:12.975Z,100100.56
2022-08-25T17:26:41.336Z,100105.66
2022-08-25T17:29:08.346Z,100111.75
2022-08-25T17:31:39.670Z,100113.53
2022-08-25T17:34:12.054Z,100114.88
2022-08-25T17:36:39.810Z,100113.56
2022-08-25T17:39:08.825Z,100111.81
2022-08-25T17:41:37.822Z,100115.69
2022-08-25T17:44:05.060Z,100108.75
2022-08-25T17:46:32.510Z,100115.38
2022-08-25T17:48:59.290Z,100114.72
2022-08-25T17:51:25.906Z,100117.00
2022-08-25T17:53:52.815Z,100115.41
2022-08-25T17:56:21.957Z,100114.19
2022-08-25T17:58:49.391Z,100121.44
2022-08-25T18:01:25.593Z,100120.63
2022-08-25T18:03:52.576Z,100128.03
2022-08-25T18:06:20.527Z,100123.63
2022-08-25T18:08:53.004Z,100126.31
2022-08-25T18:11:24.514Z,100134.31
2022-08-25T18:13:55.077Z,100132.47
2022-08-25T18:16:23.087Z,100137.13
2022-08-25T18:18:50.276Z,100135.47
2022-08-25T18:21:20.324Z,100131.31
2022-08-25T18:23:47.742Z,100131.47
2022-08-25T18:26:17.048Z,100130.13
2022-08-25T18:28:48.797Z,100138.50
2022-08-25T18:31:15.516Z,100137.09
2022-08-25T18:33:46.568Z,100146.94
2022-08-25T18:36:13.606Z,100134.75
2022-08-25T18:39:00.099Z,100145.00
2022-08-25T18:41:34.050Z,100145.38
2022-08-25T18:44:00.989Z,100141.34
2022-08-25T18:46:27.721Z,100147.22
2022-08-25T18:48:55.538Z,100156.31
2022-08-25T18:51:23.517Z,100153.81
2022-08-25T18:53:54.461Z,100153.63
2022-08-25T18:56:26.631Z,100155.53
2022-08-25T18:58:53.413Z,100150.13
2022-08-25T19:01:20.657Z,100153.88
2022-08-25T19:03:48.553Z,100156.56
2022-08-25T19:06:15.709Z,100160.50
2022-08-25T19:08:42.397Z,100161.69
2022-08-25T19:11:10.062Z,100160.66
2022-08-25T19:13:38.424Z,100154.75
2022-08-25T19:16:17.823Z,100165.50
2022-08-25T19:18:47.166Z,100168.31
2022-08-25T19:21:13.988Z,100161.44
2022-08-25T19:23:40.672Z,100162.03
2022-08-25T19:26:13.969Z,100169.25
2022-08-25T19:28:48.914Z,100162.66
2022-08-25T19:31:18.267Z,100171.97
2022-08-25T19:33:47.256Z,100171.84
2022-08-25T19:36:16.662Z,100161.84
2022-08-25T19:38:44.443Z,100164.78
2022-08-25T19:41:14.912Z,100174.50
2022-08-25T19:43:56.379Z,100167.72
2022-08-25T19:46:33.120Z,100170.72
2022-08-25T19:49:09.899Z,100167.78
2022-08-25T19:51:44.736Z,100169.66
2022-08-25T19:54:13.581Z,100167.56
2022-08-25T19:56:53.637Z,100170.91
2022-08-25T19:59:22.323Z,100165.41
2022-08-25T20:01:50.167Z,100170.09
2022-08-25T20:04:17.006Z,100174.44
2022-08-25T20:06:43.952Z,100172.31
2022-08-25T20:09:36.020Z,100173.50
2022-08-25T20:12:02.989Z,100168.97
2022-08-25T20:14:29.818Z,100173.72
2022-08-25T20:16:56.530Z,100178.97
2022-08-25T20:19:23.347Z,100173.59
2022-08-25T20:21:50.061Z,100172.06
2022-08-25T20:24:35.449Z,100165.88
2022-08-25T20:27:03.657Z,100166.75
2022-08-25T20:29:31.060Z,100176.06
2022-08-25T20:31:58.773Z,100176.44
2022-08-25T20:34:28.413Z,100178.22
2022-08-25T20:36:55.615Z,100178.22
2022-08-25T20:39:22.783Z,100179.97
2022-08-25T20:41:49.412Z,100182.53
2022-08-25T20:44:17.323Z,100185.34
2022-08-25T20:46:44.625Z,100183.41
2022-08-25T20:49:12.585Z,100173.41
2022-08-25T20:51:40.328Z,100178.09
2022-08-25T20:54:07.669Z,100174.34
2022-08-25T20:56:34.358Z,100177.38
2022-08-25T20:59:01.110Z,100182.28
2022-08-25T21:01:37.745Z,100173.22
2022-08-25T21:04:09.075Z,100181.66
2022-08-25T21:06:36.294Z,100180.06
2022-08-25T21:09:12.508Z,100184.44
2022-08-25T21:11:43.718Z,100180.69
2022-08-25T21:14:12.755Z,100176.31
2022-08-25T21:16:40.841Z,100184.53
2022-08-25T21:19:08.988Z,100180.78
2022-08-25T21:21:44.059Z,100176.09
2022-08-25T21:24:11.340Z,100176.13
2022-08-25T21:26:47.646Z,100176.09
2022-08-25T21:29:16.652Z,100175.06
2022-08-25T21:31:43.462Z,100180.16
2022-08-25T21:34:11.594Z,100180.19
2022-08-25T21:36:38.716Z,100179.16
2022-08-25T21:39:05.719Z,100173.44
2022-08-25T21:41:36.889Z,100178.03
2022-08-25T21:44:03.803Z,100179.69
2022-08-25T21:46:33.449Z,100178.91
2022-08-25T21:49:01.450Z,100170.47
2022-08-25T21:51:43.406Z,100179.47
2022-08-25T21:54:13.217Z,100183.31
2022-08-25T21:56:39.800Z,100185.50
2022-08-25T21:59:08.763Z,100172.19
2022-08-25T22:01:35.688Z,100176.09
2022-08-25T22:04:03.301Z,100170.94
2022-08-25T22:06:32.170Z,100167.56
2022-08-25T22:08:58.909Z,100165.44
2022-08-25T22:11:26.487Z,100162.13
2022-08-25T22:13:53.522Z,100166.00
2022-08-25T22:16:22.042Z,100157.81
2022-08-25T22:18:49.811Z,100161.38
2022-08-25T22:21:18.733Z,100163.31
2022-08-25T22:23:45.775Z,100167.78
2022-08-25T22:26:15.317Z,100158.41
2022-08-25T22:28:46.486Z,100166.94
2022-08-25T22:31:14.798Z,100160.66
2022-08-25T22:33:48.440Z,100160.50
2022-08-25T22:36:15.605Z,100158.69
2022-08-25T22:38:43.893Z,100153.31
2022-08-25T22:41:10.879Z,100151.66
2022-08-25T22:43:38.623Z,100142.09
2022-08-25T22:46:06.232Z,100147.81
2022-08-25T22:48:38.287Z,100151.91
2022-08-25T22:51:16.293Z,100139.28
2022-08-25T22:53:44.590Z,100137.53
2022-08-25T22:56:13.356Z,100137.97
2022-08-25T22:58:51.642Z,100132.97
2022-08-25T23:01:20.449Z,100132.00
2022-08-25T23:03:47.602Z,100139.88
2022-08-25T23:06:20.731Z,100128.09
2022-08-25T23:08:52.379Z,100131.34
2022-08-25T23:11:21.760Z,100131.28
2022-08-25T23:13:48.484Z,100126.41
2022-08-25T23:16:15.899Z,100135.59
2022-08-25T23:18:44.686Z,100130.63
2022-08-25T23:21:35.120Z,100125.31
2022-08-25T23:24:04.881Z,100126.72
2022-08-25T23:26:33.390Z,100126.81
2022-08-25T23:29:00.635Z,100120.16
2022-08-25T23:31:30.147Z,100121.63
2022-08-25T23:33:57.831Z,100120.59
2022-08-25T23:36:24.975Z,100129.09
2022-08-25T23:38:52.513Z,100124.50
2022-08-25T23:41:23.095Z,100120.13
2022-08-25T23:43:50.675Z,100116.75
2022-08-25T23:46:19.824Z,100123.31
2022-08-25T23:48:49.490Z,100122.47
2022-08-25T23:51:27.844Z,100122.72
2022-08-25T23:53:55.895Z,100121.41
2022-08-25T23:56:24.078Z,100122.56
2022-08-25T23:58:51.993Z,100118.75
